SBRPSBSJ

Guest
Details From SBRP - Leite Lopes
To SBSJ - Sao Jose Dos Campos
Flight Number -
Tags Routegen
Created
Modified
Stats Distance 181 nm / 336 km
Max Altitude 0 ft / 0 m
Waypoints 4
Social Downloads 2
Likes 0
Share VATSIM

Download

Looking for another format? Having issues loading an existing format? Contact us
Advertisement - Login to hide

Notes

None

Route

SBRP -20.99_-047.82 -22.91_-046.20 SBSJ

ID Type Via Altitude Latitude Longitude Leg Dist Tot Dist Heading (true) Name
O SBRP APT - 0 ft / 0 m -21.12508˚ -47.77709˚ - 0 nm - -
-20.99_-047.82 DME - 0 ft / 0 m -20.98638˚ -47.82137˚ 8 nm 8 nm 343° / 343° -
-22.91_-046.20 DME - 0 ft / 0 m -22.91162˚ -46.20449˚ 146 nm 155 nm 142° / 142° -
O SBSJ APT - 0 ft / 0 m -23.21968˚ -45.87193˚ 26 nm 181 nm 135° / 135° -

Altitude Profile

Advertisement - Login to hide

Weather


0- 5 10 15 20 25 30 35+ Temperature / ° C

Clouds and Precipitation
Forecast for 2018-05-25 18:00 UTC. Updated 2 hours ago

Ground ~20,000 ft ~40,000 ft Winds

SBRP

Details ICAO SBRP (RAO)
Name LEITE LOPES
Region Brazil
Timezone America/Sao_Paulo (UTC-3.0)
Stats Elevation 1,802 ft / 549 m (AMSL)
Location -21.134166° -47.774189°
Runways 1
Magnetic Variation 21.257° W

METAR

SBRP 251900Z 15005KT 9999 FEW045 27/10 Q1019

Decode

TAF

TAF SBRP 251500Z 2518/2618 14006KT CAVOK TX28/2518Z TN16/2609Z BECMG 2602/2604 10005KT BECMG 2613/2615 16003KT 9999 FEW045 RMK PGH

Decode

Departure Runways

ID Width Length Bearing (true) Bearing (mag) Surface Threshold Offset Overrun Length
18 115 ft / 35 m 6,918 ft / 2,109 m 163.40° 184.66° Asphalt 657 ft / 200 m 0 ft / 0 m
36 115 ft / 35 m 6,918 ft / 2,109 m 343.40° 4.66° Asphalt 328 ft / 100 m 0 ft / 0 m

SBSJ

Details ICAO SBSJ (SJK)
Name Sao Jose Dos Campos
Region Brazil
Timezone America/Sao_Paulo (UTC-3.0)
Stats Elevation 2,120 ft / 646 m (AMSL)
Location -23.228171° -45.862738°
Runways 1
Magnetic Variation 21.761° W

METAR

SBSJ 251900Z 14005KT 9999 SCT035 SCT100 22/14 Q1022

Decode

TAF

TAF SBSJ 251500Z 2518/2618 15010KT 7000 BKN023 TN14/2609Z TX24/2617Z BECMG 2600/2602 13005KT SCT020 BECMG 2606/2608 07005KT 4000 BR BKN010 BECMG 2610/2613 04005KT 7000 NSW SCT020 BECMG 2615/2617 14010KT BKN030 RMK PHC

Decode

Destination Runways

ID Width Length Bearing (true) Bearing (mag) Surface Threshold Offset Overrun Length
15 148 ft / 45 m 8,741 ft / 2,664 m 135.13° 156.89° Asphalt 0 ft / 0 m 0 ft / 0 m
33 148 ft / 45 m 8,741 ft / 2,664 m 315.12° 336.88° Asphalt 0 ft / 0 m 0 ft / 0 m

Approach Navaids

Runway Type Ident Frequency Range Bearing (true) Bearing (mag) Slope Elevation
15 Localiser ISJ 110.30 MHz 18 nm / 33 km 134.95° 156.71° - 2,120 ft / 646 m (AMSL)
15 Glidescope ISJ 110.30 MHz 10 nm / 19 km 135.13° 156.89° 3.00° 2,120 ft / 646 m (AMSL)
15 DME ISJ 110.30 MHz 18 nm / 33 km - - - 2,120 ft / 646 m (AMSL)